sensor_id;sensor_type;location;lat;lon;timestamp;P1;durP1;ratioP1;P2;durP2;ratioP2
15776;SDS011;7989;51.198;6.676;2022-11-13T00:00:48;7.22;;;6.60;;
15776;SDS011;7989;51.198;6.676;2022-11-13T00:03:16;7.90;;;7.20;;
15776;SDS011;7989;51.198;6.676;2022-11-13T00:05:43;12.32;;;8.23;;
15776;SDS011;7989;51.198;6.676;2022-11-13T00:08:10;7.95;;;7.15;;
15776;SDS011;7989;51.198;6.676;2022-11-13T00:10:37;8.13;;;7.22;;
15776;SDS011;7989;51.198;6.676;2022-11-13T00:13:03;8.15;;;7.35;;
15776;SDS011;7989;51.198;6.676;2022-11-13T00:15:30;8.07;;;7.22;;
15776;SDS011;7989;51.198;6.676;2022-11-13T00:17:59;7.72;;;7.00;;
15776;SDS011;7989;51.198;6.676;2022-11-13T00:20:28;8.25;;;7.43;;
15776;SDS011;7989;51.198;6.676;2022-11-13T00:22:54;7.90;;;7.03;;
15776;SDS011;7989;51.198;6.676;2022-11-13T00:25:21;8.75;;;7.53;;
15776;SDS011;7989;51.198;6.676;2022-11-13T00:27:48;8.55;;;7.03;;
15776;SDS011;7989;51.198;6.676;2022-11-13T00:30:15;6.90;;;6.18;;
15776;SDS011;7989;51.198;6.676;2022-11-13T00:32:42;7.93;;;7.13;;
15776;SDS011;7989;51.198;6.676;2022-11-13T00:35:09;8.23;;;7.25;;
15776;SDS011;7989;51.198;6.676;2022-11-13T00:37:37;7.38;;;6.68;;
15776;SDS011;7989;51.198;6.676;2022-11-13T00:40:04;10.07;;;7.47;;
15776;SDS011;7989;51.198;6.676;2022-11-13T00:42:31;7.15;;;6.53;;
15776;SDS011;7989;51.198;6.676;2022-11-13T00:44:58;7.82;;;7.03;;
15776;SDS011;7989;51.198;6.676;2022-11-13T00:47:25;7.50;;;6.63;;
15776;SDS011;7989;51.198;6.676;2022-11-13T00:49:52;7.45;;;6.75;;
15776;SDS011;7989;51.198;6.676;2022-11-13T00:52:18;8.65;;;7.50;;
15776;SDS011;7989;51.198;6.676;2022-11-13T00:54:46;7.53;;;6.82;;
15776;SDS011;7989;51.198;6.676;2022-11-13T00:57:13;7.18;;;6.47;;
15776;SDS011;7989;51.198;6.676;2022-11-13T00:59:40;8.10;;;6.85;;
15776;SDS011;7989;51.198;6.676;2022-11-13T01:02:07;7.30;;;6.70;;
15776;SDS011;7989;51.198;6.676;2022-11-13T01:04:34;7.65;;;6.88;;
15776;SDS011;7989;51.198;6.676;2022-11-13T01:07:01;7.85;;;7.13;;
15776;SDS011;7989;51.198;6.676;2022-11-13T01:09:27;8.75;;;6.63;;
15776;SDS011;7989;51.198;6.676;2022-11-13T01:11:55;7.05;;;6.40;;
15776;SDS011;7989;51.198;6.676;2022-11-13T01:14:22;6.82;;;5.78;;
15776;SDS011;7989;51.198;6.676;2022-11-13T01:16:49;6.72;;;6.13;;
15776;SDS011;7989;51.198;6.676;2022-11-13T01:19:16;7.60;;;6.55;;
15776;SDS011;7989;51.198;6.676;2022-11-13T01:21:43;7.05;;;6.38;;
15776;SDS011;7989;51.198;6.676;2022-11-13T01:24:09;7.38;;;6.68;;
15776;SDS011;7989;51.198;6.676;2022-11-13T01:26:36;9.35;;;7.13;;
15776;SDS011;7989;51.198;6.676;2022-11-13T01:29:04;7.40;;;6.38;;
15776;SDS011;7989;51.198;6.676;2022-11-13T01:31:32;8.85;;;6.53;;
15776;SDS011;7989;51.198;6.676;2022-11-13T01:33:58;7.07;;;6.45;;
15776;SDS011;7989;51.198;6.676;2022-11-13T01:36:26;7.38;;;6.68;;
15776;SDS011;7989;51.198;6.676;2022-11-13T01:38:54;8.43;;;7.28;;
15776;SDS011;7989;51.198;6.676;2022-11-13T01:41:22;9.63;;;6.07;;
15776;SDS011;7989;51.198;6.676;2022-11-13T01:43:50;7.00;;;6.30;;
15776;SDS011;7989;51.198;6.676;2022-11-13T01:46:20;7.47;;;6.55;;
15776;SDS011;7989;51.198;6.676;2022-11-13T01:48:51;7.40;;;6.63;;
15776;SDS011;7989;51.198;6.676;2022-11-13T01:51:23;7.25;;;6.55;;
15776;SDS011;7989;51.198;6.676;2022-11-13T01:53:54;7.10;;;6.40;;
15776;SDS011;7989;51.198;6.676;2022-11-13T01:56:22;6.82;;;6.25;;
15776;SDS011;7989;51.198;6.676;2022-11-13T01:58:52;6.63;;;6.10;;
15776;SDS011;7989;51.198;6.676;2022-11-13T02:01:24;7.63;;;6.82;;
15776;SDS011;7989;51.198;6.676;2022-11-13T02:03:51;6.85;;;6.03;;
15776;SDS011;7989;51.198;6.676;2022-11-13T02:06:19;6.82;;;6.22;;
15776;SDS011;7989;51.198;6.676;2022-11-13T02:08:46;7.32;;;6.60;;
15776;SDS011;7989;51.198;6.676;2022-11-13T02:11:16;6.85;;;6.25;;
15776;SDS011;7989;51.198;6.676;2022-11-13T02:13:43;7.28;;;6.68;;
15776;SDS011;7989;51.198;6.676;2022-11-13T02:16:10;6.68;;;6.00;;
15776;SDS011;7989;51.198;6.676;2022-11-13T02:18:40;8.35;;;7.50;;
15776;SDS011;7989;51.198;6.676;2022-11-13T02:21:09;8.27;;;7.43;;
15776;SDS011;7989;51.198;6.676;2022-11-13T02:23:56;7.32;;;6.63;;
15776;SDS011;7989;51.198;6.676;2022-11-13T02:26:27;7.47;;;6.68;;
15776;SDS011;7989;51.198;6.676;2022-11-13T02:28:55;7.40;;;6.28;;
15776;SDS011;7989;51.198;6.676;2022-11-13T02:31:22;7.60;;;6.78;;
15776;SDS011;7989;51.198;6.676;2022-11-13T02:33:49;8.07;;;6.72;;
15776;SDS011;7989;51.198;6.676;2022-11-13T02:36:16;8.52;;;7.07;;
15776;SDS011;7989;51.198;6.676;2022-11-13T02:38:45;8.27;;;6.40;;
15776;SDS011;7989;51.198;6.676;2022-11-13T02:41:13;7.32;;;6.63;;
15776;SDS011;7989;51.198;6.676;2022-11-13T02:43:41;8.25;;;7.00;;
15776;SDS011;7989;51.198;6.676;2022-11-13T02:46:08;7.38;;;6.78;;
15776;SDS011;7989;51.198;6.676;2022-11-13T02:48:34;8.00;;;7.20;;
15776;SDS011;7989;51.198;6.676;2022-11-13T02:51:01;7.40;;;6.35;;
15776;SDS011;7989;51.198;6.676;2022-11-13T02:53:29;6.43;;;5.93;;
15776;SDS011;7989;51.198;6.676;2022-11-13T02:55:55;6.35;;;5.75;;
15776;SDS011;7989;51.198;6.676;2022-11-13T02:58:22;6.38;;;5.70;;
15776;SDS011;7989;51.198;6.676;2022-11-13T03:00:50;7.78;;;6.97;;
15776;SDS011;7989;51.198;6.676;2022-11-13T03:03:17;6.63;;;6.03;;
15776;SDS011;7989;51.198;6.676;2022-11-13T03:05:46;8.40;;;6.07;;
15776;SDS011;7989;51.198;6.676;2022-11-13T03:08:13;6.53;;;5.93;;
15776;SDS011;7989;51.198;6.676;2022-11-13T03:10:40;6.65;;;5.50;;
15776;SDS011;7989;51.198;6.676;2022-11-13T03:13:07;6.95;;;6.25;;
15776;SDS011;7989;51.198;6.676;2022-11-13T03:15:34;6.47;;;5.88;;
15776;SDS011;7989;51.198;6.676;2022-11-13T03:18:03;7.63;;;6.18;;
15776;SDS011;7989;51.198;6.676;2022-11-13T03:20:30;7.15;;;6.45;;
15776;SDS011;7989;51.198;6.676;2022-11-13T03:22:57;6.47;;;5.88;;
15776;SDS011;7989;51.198;6.676;2022-11-13T03:25:24;7.22;;;6.55;;
15776;SDS011;7989;51.198;6.676;2022-11-13T03:27:51;7.05;;;6.43;;
15776;SDS011;7989;51.198;6.676;2022-11-13T03:30:18;6.63;;;6.03;;
15776;SDS011;7989;51.198;6.676;2022-11-13T03:32:45;7.55;;;5.85;;
15776;SDS011;7989;51.198;6.676;2022-11-13T03:35:13;6.40;;;5.80;;
15776;SDS011;7989;51.198;6.676;2022-11-13T03:37:40;5.80;;;5.30;;
15776;SDS011;7989;51.198;6.676;2022-11-13T03:40:07;6.78;;;6.05;;
15776;SDS011;7989;51.198;6.676;2022-11-13T03:42:34;6.45;;;5.80;;
15776;SDS011;7989;51.198;6.676;2022-11-13T03:45:01;7.15;;;6.45;;
15776;SDS011;7989;51.198;6.676;2022-11-13T03:47:28;7.07;;;6.40;;
15776;SDS011;7989;51.198;6.676;2022-11-13T03:49:55;7.18;;;6.47;;
15776;SDS011;7989;51.198;6.676;2022-11-13T03:52:23;6.80;;;6.15;;
15776;SDS011;7989;51.198;6.676;2022-11-13T03:54:50;6.53;;;6.03;;
15776;SDS011;7989;51.198;6.676;2022-11-13T03:57:17;6.40;;;5.82;;
15776;SDS011;7989;51.198;6.676;2022-11-13T03:59:44;6.00;;;5.57;;
15776;SDS011;7989;51.198;6.676;2022-11-13T04:02:11;6.80;;;6.20;;
15776;SDS011;7989;51.198;6.676;2022-11-13T04:04:37;7.07;;;6.38;;
15776;SDS011;7989;51.198;6.676;2022-11-13T04:07:04;7.25;;;6.57;;
15776;SDS011;7989;51.198;6.676;2022-11-13T04:09:32;8.20;;;7.05;;
15776;SDS011;7989;51.198;6.676;2022-11-13T04:11:59;7.85;;;6.90;;
15776;SDS011;7989;51.198;6.676;2022-11-13T04:14:26;7.20;;;6.60;;
15776;SDS011;7989;51.198;6.676;2022-11-13T04:16:53;7.03;;;6.40;;
15776;SDS011;7989;51.198;6.676;2022-11-13T04:19:19;8.13;;;7.25;;
15776;SDS011;7989;51.198;6.676;2022-11-13T04:21:46;8.88;;;5.95;;
15776;SDS011;7989;51.198;6.676;2022-11-13T04:24:13;7.47;;;6.75;;
15776;SDS011;7989;51.198;6.676;2022-11-13T04:26:41;7.22;;;6.57;;
15776;SDS011;7989;51.198;6.676;2022-11-13T04:29:08;7.15;;;6.45;;
15776;SDS011;7989;51.198;6.676;2022-11-13T04:31:35;7.72;;;6.43;;
15776;SDS011;7989;51.198;6.676;2022-11-13T04:34:01;7.10;;;6.47;;
15776;SDS011;7989;51.198;6.676;2022-11-13T04:36:28;7.07;;;6.25;;
15776;SDS011;7989;51.198;6.676;2022-11-13T04:38:55;7.43;;;6.72;;
15776;SDS011;7989;51.198;6.676;2022-11-13T04:41:22;6.45;;;5.82;;
15776;SDS011;7989;51.198;6.676;2022-11-13T04:44:07;9.40;;;8.55;;
15776;SDS011;7989;51.198;6.676;2022-11-13T04:46:34;6.88;;;6.18;;
15776;SDS011;7989;51.198;6.676;2022-11-13T04:49:01;10.50;;;9.25;;
15776;SDS011;7989;51.198;6.676;2022-11-13T04:51:28;7.22;;;6.55;;
15776;SDS011;7989;51.198;6.676;2022-11-13T04:53:55;8.15;;;7.35;;
15776;SDS011;7989;51.198;6.676;2022-11-13T04:56:21;7.72;;;6.93;;
15776;SDS011;7989;51.198;6.676;2022-11-13T04:58:48;7.32;;;6.72;;
15776;SDS011;7989;51.198;6.676;2022-11-13T05:01:16;7.78;;;7.07;;
15776;SDS011;7989;51.198;6.676;2022-11-13T05:03:43;7.82;;;7.03;;
15776;SDS011;7989;51.198;6.676;2022-11-13T05:06:10;6.68;;;6.13;;
15776;SDS011;7989;51.198;6.676;2022-11-13T05:08:37;7.25;;;6.63;;
15776;SDS011;7989;51.198;6.676;2022-11-13T05:11:04;8.60;;;7.72;;
15776;SDS011;7989;51.198;6.676;2022-11-13T05:13:31;7.43;;;6.68;;
15776;SDS011;7989;51.198;6.676;2022-11-13T05:16:00;9.23;;;7.53;;
15776;SDS011;7989;51.198;6.676;2022-11-13T05:18:29;8.20;;;7.50;;
15776;SDS011;7989;51.198;6.676;2022-11-13T05:20:56;7.82;;;6.75;;
15776;SDS011;7989;51.198;6.676;2022-11-13T05:23:23;6.90;;;6.30;;
15776;SDS011;7989;51.198;6.676;2022-11-13T05:25:50;7.18;;;6.55;;
15776;SDS011;7989;51.198;6.676;2022-11-13T05:28:17;7.88;;;7.18;;
15776;SDS011;7989;51.198;6.676;2022-11-13T05:30:44;7.50;;;6.80;;
15776;SDS011;7989;51.198;6.676;2022-11-13T05:33:11;6.80;;;6.15;;
15776;SDS011;7989;51.198;6.676;2022-11-13T05:35:39;7.43;;;6.68;;
15776;SDS011;7989;51.198;6.676;2022-11-13T05:38:06;10.18;;;7.70;;
15776;SDS011;7989;51.198;6.676;2022-11-13T05:40:32;8.32;;;7.15;;
15776;SDS011;7989;51.198;6.676;2022-11-13T05:42:59;8.30;;;7.53;;
15776;SDS011;7989;51.198;6.676;2022-11-13T05:45:26;8.00;;;7.30;;
15776;SDS011;7989;51.198;6.676;2022-11-13T05:47:53;7.75;;;7.05;;
15776;SDS011;7989;51.198;6.676;2022-11-13T05:50:20;6.82;;;6.22;;
15776;SDS011;7989;51.198;6.676;2022-11-13T05:52:48;9.10;;;7.07;;
15776;SDS011;7989;51.198;6.676;2022-11-13T05:55:14;7.60;;;6.90;;
15776;SDS011;7989;51.198;6.676;2022-11-13T05:57:41;7.28;;;6.57;;
15776;SDS011;7989;51.198;6.676;2022-11-13T06:00:09;7.57;;;6.88;;
15776;SDS011;7989;51.198;6.676;2022-11-13T06:02:36;8.00;;;7.30;;
15776;SDS011;7989;51.198;6.676;2022-11-13T06:05:03;7.35;;;6.70;;
15776;SDS011;7989;51.198;6.676;2022-11-13T06:07:30;7.50;;;6.82;;
15776;SDS011;7989;51.198;6.676;2022-11-13T06:09:59;7.90;;;7.20;;
15776;SDS011;7989;51.198;6.676;2022-11-13T06:12:25;7.22;;;6.63;;
15776;SDS011;7989;51.198;6.676;2022-11-13T06:14:54;8.10;;;7.38;;
15776;SDS011;7989;51.198;6.676;2022-11-13T06:17:20;7.75;;;6.95;;
15776;SDS011;7989;51.198;6.676;2022-11-13T06:19:47;7.25;;;6.55;;
15776;SDS011;7989;51.198;6.676;2022-11-13T06:22:14;7.22;;;6.43;;
15776;SDS011;7989;51.198;6.676;2022-11-13T06:24:41;7.53;;;6.82;;
15776;SDS011;7989;51.198;6.676;2022-11-13T06:27:09;7.10;;;6.53;;
15776;SDS011;7989;51.198;6.676;2022-11-13T06:29:36;7.90;;;7.20;;
15776;SDS011;7989;51.198;6.676;2022-11-13T06:32:03;8.77;;;7.88;;
15776;SDS011;7989;51.198;6.676;2022-11-13T06:34:30;7.82;;;7.03;;
15776;SDS011;7989;51.198;6.676;2022-11-13T06:36:56;8.52;;;6.45;;
15776;SDS011;7989;51.198;6.676;2022-11-13T06:39:23;7.00;;;6.38;;
15776;SDS011;7989;51.198;6.676;2022-11-13T06:41:50;6.88;;;6.20;;
15776;SDS011;7989;51.198;6.676;2022-11-13T06:44:18;7.18;;;6.55;;
15776;SDS011;7989;51.198;6.676;2022-11-13T06:46:45;10.27;;;7.32;;
15776;SDS011;7989;51.198;6.676;2022-11-13T06:49:12;8.07;;;7.10;;
15776;SDS011;7989;51.198;6.676;2022-11-13T06:51:38;7.25;;;6.63;;
15776;SDS011;7989;51.198;6.676;2022-11-13T06:54:05;7.07;;;6.38;;
15776;SDS011;7989;51.198;6.676;2022-11-13T06:56:32;7.50;;;6.80;;
15776;SDS011;7989;51.198;6.676;2022-11-13T06:58:59;6.97;;;6.40;;
15776;SDS011;7989;51.198;6.676;2022-11-13T07:01:27;12.57;;;11.35;;
15776;SDS011;7989;51.198;6.676;2022-11-13T07:03:54;9.32;;;7.65;;
15776;SDS011;7989;51.198;6.676;2022-11-13T07:06:21;7.68;;;6.97;;
15776;SDS011;7989;51.198;6.676;2022-11-13T07:08:49;9.65;;;8.18;;
15776;SDS011;7989;51.198;6.676;2022-11-13T07:11:17;6.13;;;5.57;;
15776;SDS011;7989;51.198;6.676;2022-11-13T07:13:46;7.68;;;6.78;;
15776;SDS011;7989;51.198;6.676;2022-11-13T07:16:13;8.25;;;6.55;;
15776;SDS011;7989;51.198;6.676;2022-11-13T07:18:42;7.70;;;6.88;;
15776;SDS011;7989;51.198;6.676;2022-11-13T07:21:10;8.35;;;6.90;;
15776;SDS011;7989;51.198;6.676;2022-11-13T07:23:37;7.10;;;6.28;;
15776;SDS011;7989;51.198;6.676;2022-11-13T07:26:07;8.65;;;7.78;;
15776;SDS011;7989;51.198;6.676;2022-11-13T07:28:34;8.23;;;7.53;;
15776;SDS011;7989;51.198;6.676;2022-11-13T07:31:01;7.85;;;7.10;;
15776;SDS011;7989;51.198;6.676;2022-11-13T07:33:28;7.90;;;7.22;;
15776;SDS011;7989;51.198;6.676;2022-11-13T07:35:56;7.88;;;7.28;;
15776;SDS011;7989;51.198;6.676;2022-11-13T07:38:24;9.18;;;8.27;;
15776;SDS011;7989;51.198;6.676;2022-11-13T07:40:51;8.48;;;7.03;;
15776;SDS011;7989;51.198;6.676;2022-11-13T07:43:18;8.07;;;7.18;;
15776;SDS011;7989;51.198;6.676;2022-11-13T07:45:45;7.13;;;6.43;;
15776;SDS011;7989;51.198;6.676;2022-11-13T07:48:18;7.15;;;6.55;;
15776;SDS011;7989;51.198;6.676;2022-11-13T07:50:45;7.88;;;6.97;;
15776;SDS011;7989;51.198;6.676;2022-11-13T07:53:15;7.57;;;6.88;;
15776;SDS011;7989;51.198;6.676;2022-11-13T07:55:42;6.78;;;6.10;;
15776;SDS011;7989;51.198;6.676;2022-11-13T07:58:09;6.70;;;6.10;;
15776;SDS011;7989;51.198;6.676;2022-11-13T08:00:36;6.85;;;6.25;;
15776;SDS011;7989;51.198;6.676;2022-11-13T08:03:03;7.03;;;6.43;;
15776;SDS011;7989;51.198;6.676;2022-11-13T08:05:31;7.03;;;6.38;;
15776;SDS011;7989;51.198;6.676;2022-11-13T08:07:58;7.00;;;6.32;;
15776;SDS011;7989;51.198;6.676;2022-11-13T08:10:26;6.05;;;5.55;;
15776;SDS011;7989;51.198;6.676;2022-11-13T08:12:56;6.72;;;6.13;;
15776;SDS011;7989;51.198;6.676;2022-11-13T08:15:25;7.95;;;5.82;;
15776;SDS011;7989;51.198;6.676;2022-11-13T08:17:52;6.20;;;5.63;;
15776;SDS011;7989;51.198;6.676;2022-11-13T08:20:20;5.80;;;5.30;;
15776;SDS011;7989;51.198;6.676;2022-11-13T08:22:47;6.30;;;5.78;;
15776;SDS011;7989;51.198;6.676;2022-11-13T08:25:14;6.15;;;5.60;;
15776;SDS011;7989;51.198;6.676;2022-11-13T08:27:43;5.82;;;5.32;;
15776;SDS011;7989;51.198;6.676;2022-11-13T08:30:10;5.32;;;4.78;;
15776;SDS011;7989;51.198;6.676;2022-11-13T08:32:38;4.97;;;4.47;;
15776;SDS011;7989;51.198;6.676;2022-11-13T08:35:05;8.98;;;8.05;;
15776;SDS011;7989;51.198;6.676;2022-11-13T08:37:32;5.10;;;4.70;;
15776;SDS011;7989;51.198;6.676;2022-11-13T08:39:59;5.07;;;4.68;;
15776;SDS011;7989;51.198;6.676;2022-11-13T08:42:26;4.95;;;4.55;;
15776;SDS011;7989;51.198;6.676;2022-11-13T08:44:54;4.53;;;4.13;;
15776;SDS011;7989;51.198;6.676;2022-11-13T08:47:21;4.15;;;3.75;;
15776;SDS011;7989;51.198;6.676;2022-11-13T08:49:48;4.18;;;3.78;;
15776;SDS011;7989;51.198;6.676;2022-11-13T08:52:15;3.60;;;3.30;;
15776;SDS011;7989;51.198;6.676;2022-11-13T08:54:42;4.05;;;3.75;;
15776;SDS011;7989;51.198;6.676;2022-11-13T08:57:09;3.60;;;3.20;;
15776;SDS011;7989;51.198;6.676;2022-11-13T08:59:36;4.82;;;3.10;;
15776;SDS011;7989;51.198;6.676;2022-11-13T09:02:04;3.90;;;3.00;;
15776;SDS011;7989;51.198;6.676;2022-11-13T09:04:31;3.83;;;3.30;;
15776;SDS011;7989;51.198;6.676;2022-11-13T09:06:57;2.70;;;2.50;;
15776;SDS011;7989;51.198;6.676;2022-11-13T09:09:24;3.38;;;3.08;;
15776;SDS011;7989;51.198;6.676;2022-11-13T09:11:51;2.95;;;2.67;;
15776;SDS011;7989;51.198;6.676;2022-11-13T09:14:18;3.75;;;2.97;;
15776;SDS011;7989;51.198;6.676;2022-11-13T09:16:45;3.17;;;2.88;;
15776;SDS011;7989;51.198;6.676;2022-11-13T09:19:13;3.00;;;2.70;;
15776;SDS011;7989;51.198;6.676;2022-11-13T09:21:40;3.90;;;2.97;;
15776;SDS011;7989;51.198;6.676;2022-11-13T09:24:07;3.17;;;2.88;;
15776;SDS011;7989;51.198;6.676;2022-11-13T09:26:33;2.47;;;2.28;;
15776;SDS011;7989;51.198;6.676;2022-11-13T09:29:01;2.53;;;2.33;;
15776;SDS011;7989;51.198;6.676;2022-11-13T09:31:28;2.97;;;2.70;;
15776;SDS011;7989;51.198;6.676;2022-11-13T09:33:54;2.58;;;2.38;;
15776;SDS011;7989;51.198;6.676;2022-11-13T09:36:23;2.35;;;2.15;;
15776;SDS011;7989;51.198;6.676;2022-11-13T09:38:50;3.08;;;2.78;;
15776;SDS011;7989;51.198;6.676;2022-11-13T09:41:18;2.75;;;2.38;;
15776;SDS011;7989;51.198;6.676;2022-11-13T09:43:48;2.85;;;2.20;;
15776;SDS011;7989;51.198;6.676;2022-11-13T09:46:18;2.33;;;2.05;;
15776;SDS011;7989;51.198;6.676;2022-11-13T09:48:49;2.50;;;2.30;;
15776;SDS011;7989;51.198;6.676;2022-11-13T09:51:21;2.55;;;2.03;;
15776;SDS011;7989;51.198;6.676;2022-11-13T09:53:53;2.50;;;2.30;;
15776;SDS011;7989;51.198;6.676;2022-11-13T09:56:24;2.13;;;1.88;;
15776;SDS011;7989;51.198;6.676;2022-11-13T09:59:05;1.88;;;1.77;;
15776;SDS011;7989;51.198;6.676;2022-11-13T10:01:45;2.22;;;2.03;;
15776;SDS011;7989;51.198;6.676;2022-11-13T10:04:18;2.33;;;2.13;;
15776;SDS011;7989;51.198;6.676;2022-11-13T10:06:59;2.20;;;2.00;;
15776;SDS011;7989;51.198;6.676;2022-11-13T10:09:35;1.85;;;1.70;;
15776;SDS011;7989;51.198;6.676;2022-11-13T10:12:10;2.38;;;2.17;;
15776;SDS011;7989;51.198;6.676;2022-11-13T10:14:40;2.05;;;1.80;;
15776;SDS011;7989;51.198;6.676;2022-11-13T10:17:11;2.53;;;2.10;;
15776;SDS011;7989;51.198;6.676;2022-11-13T10:19:44;2.40;;;2.20;;
15776;SDS011;7989;51.198;6.676;2022-11-13T10:22:20;2.22;;;1.92;;
15776;SDS011;7989;51.198;6.676;2022-11-13T10:24:53;2.65;;;1.90;;
15776;SDS011;7989;51.198;6.676;2022-11-13T10:27:26;3.22;;;1.95;;
15776;SDS011;7989;51.198;6.676;2022-11-13T10:29:53;2.50;;;1.88;;
15776;SDS011;7989;51.198;6.676;2022-11-13T10:32:21;3.33;;;2.33;;
15776;SDS011;7989;51.198;6.676;2022-11-13T10:34:51;2.75;;;2.55;;
15776;SDS011;7989;51.198;6.676;2022-11-13T10:37:27;2.47;;;2.10;;
15776;SDS011;7989;51.198;6.676;2022-11-13T10:40:04;2.80;;;2.60;;
15776;SDS011;7989;51.198;6.676;2022-11-13T10:42:34;2.42;;;2.22;;
15776;SDS011;7989;51.198;6.676;2022-11-13T10:45:12;2.50;;;2.30;;
15776;SDS011;7989;51.198;6.676;2022-11-13T10:47:42;2.63;;;2.42;;
15776;SDS011;7989;51.198;6.676;2022-11-13T10:50:14;3.00;;;2.70;;
15776;SDS011;7989;51.198;6.676;2022-11-13T10:52:47;2.78;;;2.58;;
15776;SDS011;7989;51.198;6.676;2022-11-13T10:55:16;5.35;;;4.85;;
15776;SDS011;7989;51.198;6.676;2022-11-13T10:57:53;3.30;;;3.00;;
15776;SDS011;7989;51.198;6.676;2022-11-13T11:00:22;3.08;;;2.78;;
15776;SDS011;7989;51.198;6.676;2022-11-13T11:02:50;3.03;;;2.40;;
15776;SDS011;7989;51.198;6.676;2022-11-13T11:05:18;2.22;;;2.13;;
15776;SDS011;7989;51.198;6.676;2022-11-13T11:07:48;2.15;;;1.95;;
15776;SDS011;7989;51.198;6.676;2022-11-13T11:10:24;2.08;;;1.88;;
15776;SDS011;7989;51.198;6.676;2022-11-13T11:12:56;2.22;;;1.73;;
15776;SDS011;7989;51.198;6.676;2022-11-13T11:15:28;1.98;;;1.60;;
15776;SDS011;7989;51.198;6.676;2022-11-13T11:18:03;1.98;;;1.88;;
15776;SDS011;7989;51.198;6.676;2022-11-13T11:20:41;2.03;;;1.83;;
15776;SDS011;7989;51.198;6.676;2022-11-13T11:23:21;2.28;;;1.95;;
15776;SDS011;7989;51.198;6.676;2022-11-13T11:25:53;2.20;;;2.00;;
15776;SDS011;7989;51.198;6.676;2022-11-13T11:28:29;3.13;;;2.85;;
15776;SDS011;7989;51.198;6.676;2022-11-13T11:31:02;2.55;;;2.35;;
15776;SDS011;7989;51.198;6.676;2022-11-13T11:33:35;2.08;;;1.65;;
15776;SDS011;7989;51.198;6.676;2022-11-13T11:36:10;2.25;;;2.05;;
15776;SDS011;7989;51.198;6.676;2022-11-13T11:38:44;2.55;;;1.75;;
15776;SDS011;7989;51.198;6.676;2022-11-13T11:41:19;1.92;;;1.70;;
15776;SDS011;7989;51.198;6.676;2022-11-13T11:43:52;2.25;;;2.05;;
15776;SDS011;7989;51.198;6.676;2022-11-13T11:46:26;3.30;;;2.22;;
15776;SDS011;7989;51.198;6.676;2022-11-13T11:48:55;2.42;;;1.85;;
15776;SDS011;7989;51.198;6.676;2022-11-13T11:51:28;5.50;;;2.22;;
15776;SDS011;7989;51.198;6.676;2022-11-13T11:54:04;2.22;;;2.08;;
15776;SDS011;7989;51.198;6.676;2022-11-13T11:56:41;2.22;;;1.65;;
15776;SDS011;7989;51.198;6.676;2022-11-13T11:59:12;2.90;;;1.55;;
15776;SDS011;7989;51.198;6.676;2022-11-13T12:04:54;4.03;;;2.70;;
15776;SDS011;7989;51.198;6.676;2022-11-13T12:07:31;4.05;;;2.33;;
15776;SDS011;7989;51.198;6.676;2022-11-13T12:10:09;3.45;;;2.20;;
15776;SDS011;7989;51.198;6.676;2022-11-13T12:12:50;4.10;;;2.58;;
15776;SDS011;7989;51.198;6.676;2022-11-13T12:15:27;2.72;;;2.15;;
15776;SDS011;7989;51.198;6.676;2022-11-13T12:18:02;2.60;;;2.20;;
15776;SDS011;7989;51.198;6.676;2022-11-13T12:20:36;2.30;;;1.88;;
15776;SDS011;7989;51.198;6.676;2022-11-13T12:23:12;1.90;;;1.80;;
15776;SDS011;7989;51.198;6.676;2022-11-13T12:25:59;2.10;;;1.90;;
15776;SDS011;7989;51.198;6.676;2022-11-13T12:28:30;2.50;;;2.30;;
15776;SDS011;7989;51.198;6.676;2022-11-13T12:31:05;2.30;;;2.10;;
15776;SDS011;7989;51.198;6.676;2022-11-13T12:33:42;2.05;;;1.95;;
15776;SDS011;7989;51.198;6.676;2022-11-13T12:36:17;3.42;;;2.15;;
15776;SDS011;7989;51.198;6.676;2022-11-13T12:38:47;3.33;;;3.03;;
15776;SDS011;7989;51.198;6.676;2022-11-13T12:41:23;3.05;;;2.78;;
15776;SDS011;7989;51.198;6.676;2022-11-13T12:44:04;3.95;;;3.10;;
15776;SDS011;7989;51.198;6.676;2022-11-13T12:46:40;3.20;;;2.38;;
15776;SDS011;7989;51.198;6.676;2022-11-13T12:49:15;5.00;;;2.72;;
15776;SDS011;7989;51.198;6.676;2022-11-13T12:51:56;4.13;;;3.13;;
15776;SDS011;7989;51.198;6.676;2022-11-13T12:54:25;2.92;;;2.20;;
15776;SDS011;7989;51.198;6.676;2022-11-13T12:59:45;3.00;;;2.60;;
15776;SDS011;7989;51.198;6.676;2022-11-13T13:02:17;3.53;;;3.00;;
15776;SDS011;7989;51.198;6.676;2022-11-13T13:05:05;5.47;;;3.20;;
15776;SDS011;7989;51.198;6.676;2022-11-13T13:07:48;3.65;;;2.80;;
15776;SDS011;7989;51.198;6.676;2022-11-13T13:10:30;9.18;;;7.85;;
15776;SDS011;7989;51.198;6.676;2022-11-13T13:13:09;12.25;;;8.38;;
15776;SDS011;7989;51.198;6.676;2022-11-13T13:15:42;3.67;;;3.20;;
15776;SDS011;7989;51.198;6.676;2022-11-13T13:18:22;4.35;;;3.95;;
15776;SDS011;7989;51.198;6.676;2022-11-13T13:20:57;6.15;;;3.10;;
15776;SDS011;7989;51.198;6.676;2022-11-13T13:23:27;12.20;;;8.35;;
15776;SDS011;7989;51.198;6.676;2022-11-13T13:26:00;27.88;;;23.35;;
15776;SDS011;7989;51.198;6.676;2022-11-13T13:28:30;10.48;;;8.15;;
15776;SDS011;7989;51.198;6.676;2022-11-13T13:31:01;22.60;;;17.17;;
15776;SDS011;7989;51.198;6.676;2022-11-13T13:33:34;15.82;;;14.10;;
15776;SDS011;7989;51.198;6.676;2022-11-13T13:36:13;43.53;;;31.20;;
15776;SDS011;7989;51.198;6.676;2022-11-13T13:38:47;25.33;;;20.73;;
15776;SDS011;7989;51.198;6.676;2022-11-13T13:41:24;13.63;;;12.07;;
15776;SDS011;7989;51.198;6.676;2022-11-13T13:44:07;8.63;;;6.20;;
15776;SDS011;7989;51.198;6.676;2022-11-13T13:46:45;9.10;;;7.90;;
15776;SDS011;7989;51.198;6.676;2022-11-13T13:49:13;4.53;;;3.88;;
15776;SDS011;7989;51.198;6.676;2022-11-13T13:51:43;6.60;;;5.72;;
15776;SDS011;7989;51.198;6.676;2022-11-13T13:54:14;14.02;;;12.15;;
15776;SDS011;7989;51.198;6.676;2022-11-13T13:56:43;15.88;;;11.85;;
15776;SDS011;7989;51.198;6.676;2022-11-13T13:59:15;5.03;;;4.20;;
15776;SDS011;7989;51.198;6.676;2022-11-13T14:01:51;15.75;;;14.35;;
15776;SDS011;7989;51.198;6.676;2022-11-13T14:04:20;15.93;;;14.30;;
15776;SDS011;7989;51.198;6.676;2022-11-13T14:06:48;4.25;;;3.85;;
15776;SDS011;7989;51.198;6.676;2022-11-13T14:09:17;7.10;;;6.40;;
15776;SDS011;7989;51.198;6.676;2022-11-13T14:11:45;7.57;;;5.85;;
15776;SDS011;7989;51.198;6.676;2022-11-13T14:14:17;6.88;;;4.35;;
15776;SDS011;7989;51.198;6.676;2022-11-13T14:16:47;4.93;;;3.50;;
15776;SDS011;7989;51.198;6.676;2022-11-13T14:19:15;4.28;;;2.63;;
15776;SDS011;7989;51.198;6.676;2022-11-13T14:21:42;2.75;;;2.20;;
15776;SDS011;7989;51.198;6.676;2022-11-13T14:24:13;3.78;;;2.25;;
15776;SDS011;7989;51.198;6.676;2022-11-13T14:26:42;3.70;;;2.75;;
15776;SDS011;7989;51.198;6.676;2022-11-13T14:29:14;4.88;;;2.90;;
15776;SDS011;7989;51.198;6.676;2022-11-13T14:31:48;3.67;;;3.05;;
15776;SDS011;7989;51.198;6.676;2022-11-13T14:34:17;6.07;;;3.15;;
15776;SDS011;7989;51.198;6.676;2022-11-13T14:36:46;12.77;;;11.48;;
15776;SDS011;7989;51.198;6.676;2022-11-13T14:39:17;4.50;;;3.85;;
15776;SDS011;7989;51.198;6.676;2022-11-13T14:41:49;5.75;;;2.90;;
15776;SDS011;7989;51.198;6.676;2022-11-13T14:44:26;4.88;;;3.78;;
15776;SDS011;7989;51.198;6.676;2022-11-13T14:47:00;4.32;;;3.92;;
15776;SDS011;7989;51.198;6.676;2022-11-13T14:49:29;7.70;;;5.55;;
15776;SDS011;7989;51.198;6.676;2022-11-13T14:51:58;6.57;;;4.97;;
15776;SDS011;7989;51.198;6.676;2022-11-13T14:54:27;7.80;;;4.90;;
15776;SDS011;7989;51.198;6.676;2022-11-13T14:57:04;6.13;;;4.70;;
15776;SDS011;7989;51.198;6.676;2022-11-13T14:59:35;4.28;;;3.75;;
15776;SDS011;7989;51.198;6.676;2022-11-13T15:02:02;6.43;;;4.00;;
15776;SDS011;7989;51.198;6.676;2022-11-13T15:04:30;4.82;;;3.78;;
15776;SDS011;7989;51.198;6.676;2022-11-13T15:06:58;9.98;;;4.13;;
15776;SDS011;7989;51.198;6.676;2022-11-13T15:09:26;5.18;;;3.40;;
15776;SDS011;7989;51.198;6.676;2022-11-13T15:11:55;9.90;;;8.20;;
15776;SDS011;7989;51.198;6.676;2022-11-13T15:14:21;8.95;;;4.40;;
15776;SDS011;7989;51.198;6.676;2022-11-13T15:16:50;6.80;;;4.50;;
15776;SDS011;7989;51.198;6.676;2022-11-13T15:19:19;7.15;;;3.50;;